Time;durP1;ratioP1;P1;durP2;ratioP2;P2;SDS_P1;SDS_P2;PMS_P1;PMS_P2;Temp;Humidity;BMP_temperature;BMP_pressure;BME280_temperature;BME280_humidity;BME280_pressure;Samples;Min_cycle;Max_cycle;Signal;HPM_P1;HPM_P2
2023/03/21 00:00:30;;;;;;;4.67;4.27;;;;;;;10.06;64.29;97882.19;6135140;28;20246;-36
2023/03/21 00:03:34;;;;;;;5.70;4.13;;;;;;;10.12;64.21;97871.66;6135321;28;20307;-36
2023/03/21 00:06:37;;;;;;;4.10;3.53;;;;;;;9.88;64.02;97833.59;6134833;28;20761;-36
2023/03/21 00:09:39;;;;;;;4.40;3.47;;;;;;;10.08;63.83;97879.28;6134579;28;20262;-36
2023/03/21 00:12:41;;;;;;;3.63;3.20;;;;;;;10.09;63.89;97873.72;6135116;28;20697;-36
2023/03/21 00:15:49;;;;;;;2.77;2.57;;;;;;;10.03;63.89;97882.63;6132919;28;20236;-36
2023/03/21 00:19:08;;;;;;;3.30;2.37;;;;;;;9.98;64.04;97877.22;6133235;28;20275;-37
2023/03/21 00:22:10;;;;;;;2.53;2.30;;;;;;;10.04;63.69;97865.63;6134600;28;20379;-36
2023/03/21 00:25:13;;;;;;;4.33;2.60;;;;;;;10.02;63.73;97862.41;6132802;28;20230;-36
2023/03/21 00:28:15;;;;;;;3.00;2.27;;;;;;;9.96;63.86;97863.34;6148474;28;20248;-36
2023/03/21 00:31:17;;;;;;;2.83;2.20;;;;;;;9.83;64.15;97853.72;6132259;28;20245;-36
2023/03/21 00:34:19;;;;;;;2.13;1.93;;;;;;;9.87;63.98;97864.72;6133797;28;20255;-36
2023/03/21 00:37:41;;;;;;;2.30;2.07;;;;;;;9.83;63.99;97850.25;6133105;28;20236;-36
2023/03/21 00:40:44;;;;;;;2.50;2.20;;;;;;;9.68;64.30;97834.78;6135966;28;20240;-36
2023/03/21 00:43:50;;;;;;;1.90;1.80;;;;;;;9.78;64.33;97855.47;6134270;28;20278;-36
2023/03/21 00:46:53;;;;;;;2.50;2.30;;;;;;;9.77;64.48;97844.03;6133463;28;20230;-36
2023/03/21 00:50:09;;;;;;;2.40;1.97;;;;;;;9.76;64.30;97838.94;6130520;28;20243;-36
2023/03/21 00:53:12;;;;;;;2.00;1.90;;;;;;;9.77;64.42;97835.25;6132158;28;20233;-36
2023/03/21 00:56:14;;;;;;;2.13;1.93;;;;;;;9.77;64.32;97843.22;6135659;28;20242;-36
2023/03/21 00:59:16;;;;;;;1.80;1.70;;;;;;;9.61;64.32;97810.16;6133254;28;20318;-36
2023/03/21 01:02:21;;;;;;;2.73;2.17;;;;;;;9.73;64.48;97844.72;6134505;28;20224;-37
2023/03/21 01:06:12;;;;;;;3.03;2.13;;;;;;;9.67;64.96;97837.66;6137924;28;20242;-36
2023/03/21 01:08:54;;;;;;;2.40;2.20;;;;;;;9.77;64.72;97840.56;6124978;28;20235;-36
2023/03/21 01:11:56;;;;;;;2.27;2.07;;;;;;;9.86;64.12;97844.50;6133733;28;20665;-36
2023/03/21 01:14:58;;;;;;;3.07;2.77;;;;;;;9.78;64.17;97837.66;6119920;28;20266;-36
2023/03/21 01:18:01;;;;;;;4.90;3.33;;;;;;;10.06;63.32;97836.13;6130982;28;20266;-36
2023/03/21 01:21:07;;;;;;;3.90;3.20;;;;;;;10.19;62.32;97840.38;6132622;28;20220;-36
2023/03/21 01:24:10;;;;;;;3.13;2.90;;;;;;;10.35;62.01;97830.88;6131330;28;20219;-36
2023/03/21 01:27:12;;;;;;;3.23;2.77;;;;;;;10.50;61.20;97836.50;6133427;28;20521;-36
2023/03/21 01:30:14;;;;;;;2.60;2.40;;;;;;;10.53;61.07;97836.81;6129985;28;20283;-37
2023/03/21 01:33:22;;;;;;;2.93;2.50;;;;;;;10.49;61.31;97834.88;6131222;28;20597;-36
2023/03/21 01:36:25;;;;;;;2.63;2.43;;;;;;;10.37;61.02;97821.59;6131209;28;20308;-35
2023/03/21 01:39:34;;;;;;;3.30;2.40;;;;;;;10.38;60.72;97809.91;6130606;28;20233;-36
2023/03/21 01:42:36;;;;;;;2.30;2.10;;;;;;;10.57;61.04;97843.28;6133926;28;20711;-36
2023/03/21 01:46:06;;;;;;;2.70;1.80;;;;;;;10.52;60.90;97837.88;6135076;28;20246;-36
2023/03/21 01:49:34;;;;;;;2.40;2.20;;;;;;;10.50;60.99;97845.31;6131460;28;20235;-36
2023/03/21 01:53:00;;;;;;;1.90;1.80;;;;;;;10.41;60.96;97816.63;6128220;28;20340;-36
2023/03/21 01:56:12;;;;;;;2.20;2.00;;;;;;;10.54;60.94;97841.13;6131594;28;20380;-36
2023/03/21 01:59:30;;;;;;;2.30;1.90;;;;;;;10.40;60.66;97810.50;6128481;28;20232;-36
2023/03/21 02:03:10;;;;;;;2.20;1.90;;;;;;;10.48;61.06;97834.06;6032655;28;20720;-36
2023/03/21 02:06:40;;;;;;;3.57;2.30;;;;;;;10.43;61.25;97825.97;6146506;28;20356;-36
2023/03/21 02:10:08;;;;;;;2.17;1.83;;;;;;;10.47;61.13;97829.78;6124601;28;20235;-35
2023/03/21 02:13:14;;;;;;;1.90;1.73;;;;;;;10.42;61.56;97824.38;6146620;28;20597;-35
2023/03/21 02:16:27;;;;;;;1.53;1.43;;;;;;;10.33;61.70;97823.13;6131614;28;20342;-35
2023/03/21 02:19:50;;;;;;;1.73;1.50;;;;;;;10.22;61.87;97821.28;6119928;28;20260;-35
2023/03/21 02:23:13;;;;;;;1.50;1.30;;;;;;;10.15;62.51;97821.41;6142071;28;20713;-35
2023/03/21 02:26:17;;;;;;;1.30;1.20;;;;;;;10.06;62.77;97818.31;6130171;28;20235;-35
2023/03/21 02:29:35;;;;;;;1.50;1.40;;;;;;;10.00;62.87;97810.44;6143786;28;20277;-36
2023/03/21 02:33:02;;;;;;;1.37;1.27;;;;;;;9.96;63.14;97812.78;6120557;28;20605;-36
2023/03/21 02:36:31;;;;;;;1.60;1.50;;;;;;;9.96;62.87;97817.28;6127718;28;20451;-36
2023/03/21 02:39:52;;;;;;;1.60;1.40;;;;;;;9.93;63.28;97813.22;6129031;28;20259;-36
2023/03/21 02:43:10;;;;;;;2.07;1.10;;;;;;;9.93;63.33;97809.75;6129574;28;20238;-36
2023/03/21 02:46:33;;;;;;;1.50;1.30;;;;;;;9.71;63.00;97791.75;6143643;28;20229;-36
2023/03/21 02:50:06;;;;;;;2.43;1.33;;;;;;;9.68;62.79;97786.88;6127664;28;20605;-37
2023/03/21 02:53:12;;;;;;;1.30;1.20;;;;;;;9.86;62.88;97814.41;6127426;28;20271;-35
2023/03/21 02:56:14;;;;;;;1.43;1.33;;;;;;;9.98;61.88;97796.56;6145828;28;20329;-35
2023/03/21 02:59:24;;;;;;;1.40;1.30;;;;;;;9.86;62.24;97806.44;6126035;29;20241;-35
2023/03/21 03:02:29;;;;;;;1.47;1.37;;;;;;;9.99;61.87;97806.16;6143741;28;20272;-36
2023/03/21 03:05:39;;;;;;;3.00;1.40;;;;;;;9.85;62.30;97802.94;6132840;28;20240;-36
2023/03/21 03:09:03;;;;;;;1.60;1.50;;;;;;;9.79;62.55;97806.53;6126347;28;20236;-36
2023/03/21 03:12:20;;;;;;;1.40;1.30;;;;;;;9.76;62.39;97805.16;6125875;28;20788;-36
2023/03/21 03:15:48;;;;;;;2.90;2.00;;;;;;;9.74;62.11;97801.09;6127553;28;20695;-36
2023/03/21 03:19:00;;;;;;;1.60;1.50;;;;;;;9.72;62.08;97792.56;6135366;28;20239;-36
2023/03/21 03:22:12;;;;;;;2.97;1.70;;;;;;;9.80;61.90;97798.34;6131599;28;20723;-36
2023/03/21 03:25:22;;;;;;;2.03;1.80;;;;;;;9.78;62.23;97804.94;6133648;28;20278;-36
2023/03/21 03:28:47;;;;;;;1.60;1.50;;;;;;;9.71;61.46;97777.66;6116470;28;20235;-36
2023/03/21 03:32:00;;;;;;;1.70;1.60;;;;;;;9.83;61.88;97800.53;6134164;28;20235;-37
2023/03/21 03:35:07;;;;;;;1.70;1.60;;;;;;;9.76;62.19;97805.16;6131526;28;20242;-37
2023/03/21 03:38:11;;;;;;;1.43;1.33;;;;;;;9.70;62.25;97800.75;6136086;28;20721;-37
2023/03/21 03:41:27;;;;;;;1.53;1.40;;;;;;;9.41;62.47;97762.66;6135184;28;20287;-37
2023/03/21 03:44:38;;;;;;;2.77;2.43;;;;;;;9.63;62.67;97799.28;6148130;28;20719;-37
2023/03/21 03:47:57;;;;;;;2.57;2.10;;;;;;;9.67;62.57;97795.91;6142272;28;20236;-37
2023/03/21 03:51:11;;;;;;;3.03;2.27;;;;;;;9.67;62.78;97790.59;6148611;28;20228;-37
2023/03/21 03:54:38;;;;;;;2.77;2.50;;;;;;;9.62;62.86;97795.81;6135820;28;20255;-37
2023/03/21 03:57:41;;;;;;;2.20;1.90;;;;;;;9.65;62.56;97794.53;6133866;28;20735;-37
2023/03/21 04:00:43;;;;;;;1.80;1.70;;;;;;;9.64;62.39;97798.22;6135336;28;20395;-37
2023/03/21 04:03:50;;;;;;;1.50;1.40;;;;;;;9.42;63.04;97777.56;6133568;28;20724;-37
2023/03/21 04:07:08;;;;;;;2.03;1.83;;;;;;;9.48;63.27;97799.75;6124222;28;20231;-37
2023/03/21 04:10:11;;;;;;;2.80;2.60;;;;;;;9.41;63.78;97801.69;6130601;28;20224;-37
2023/03/21 04:13:15;;;;;;;3.57;3.27;;;;;;;9.45;63.61;97798.34;6141261;28;20248;-37
2023/03/21 04:16:53;;;;;;;2.73;2.53;;;;;;;9.25;63.68;97766.78;6124827;28;20242;-37
2023/03/21 04:19:55;;;;;;;3.17;2.60;;;;;;;9.34;63.56;97787.72;6134770;28;20248;-37
2023/03/21 04:23:11;;;;;;;2.93;2.67;;;;;;;9.39;63.52;97806.44;6133179;28;20228;-37
2023/03/21 04:26:19;;;;;;;4.27;3.57;;;;;;;9.52;62.95;97806.22;6128511;28;20232;-37
2023/03/21 04:29:42;;;;;;;3.23;2.80;;;;;;;9.45;63.28;97814.28;6131122;28;20225;-37
2023/03/21 04:33:09;;;;;;;3.40;3.10;;;;;;;9.37;63.67;97809.34;6140236;28;20228;-37
2023/03/21 04:36:23;;;;;;;3.03;2.70;;;;;;;9.24;63.92;97806.91;6134828;28;20246;-37
2023/03/21 04:39:28;;;;;;;3.33;3.03;;;;;;;9.17;64.17;97806.22;6134049;28;20258;-37
2023/03/21 04:42:30;;;;;;;3.80;3.40;;;;;;;8.97;64.20;97775.44;6133208;28;20687;-37
2023/03/21 04:45:32;;;;;;;3.33;2.77;;;;;;;9.03;64.21;97793.13;6131571;28;20232;-37
2023/03/21 04:48:34;;;;;;;3.83;3.43;;;;;;;9.18;64.05;97802.50;6134415;28;20834;-37
2023/03/21 04:51:37;;;;;;;3.27;3.03;;;;;;;9.08;64.27;97797.75;6132558;28;20255;-36
2023/03/21 04:54:43;;;;;;;3.40;3.10;;;;;;;9.09;64.11;97804.69;6131152;28;20239;-36
2023/03/21 04:57:46;;;;;;;3.50;3.20;;;;;;;9.10;64.36;97810.81;6133168;28;20243;-37
2023/03/21 05:00:51;;;;;;;3.50;3.20;;;;;;;9.09;64.23;97803.88;6132182;28;20381;-37
2023/03/21 05:03:56;;;;;;;2.43;2.23;;;;;;;9.02;64.26;97812.78;6132665;28;20238;-37
2023/03/21 05:06:59;;;;;;;3.73;3.43;;;;;;;8.86;64.53;97800.13;6133238;28;20301;-37
2023/03/21 05:10:01;;;;;;;2.40;2.00;;;;;;;8.83;64.02;97818.38;6134171;28;20432;-37
2023/03/21 05:13:04;;;;;;;2.13;1.93;;;;;;;8.44;64.76;97817.91;6116298;28;20238;-36
2023/03/21 05:16:07;;;;;;;3.27;2.40;;;;;;;8.22;64.96;97834.25;6128597;28;20626;-37
2023/03/21 05:19:12;;;;;;;2.33;2.13;;;;;;;7.98;65.90;97840.47;6133368;28;20296;-36
2023/03/21 05:22:18;;;;;;;2.90;2.23;;;;;;;7.80;65.96;97835.97;6131507;28;20250;-37
2023/03/21 05:25:33;;;;;;;2.60;2.40;;;;;;;7.48;66.97;97838.69;6129702;28;20241;-37
2023/03/21 05:28:56;;;;;;;2.93;2.73;;;;;;;7.27;67.48;97812.59;6128972;28;20242;-36
2023/03/21 05:31:59;;;;;;;5.03;2.67;;;;;;;7.48;67.24;97845.84;6130687;28;20381;-37
2023/03/21 05:35:02;;;;;;;2.67;2.37;;;;;;;7.41;67.53;97839.81;6132418;28;20268;-36
2023/03/21 05:38:05;;;;;;;5.30;2.80;;;;;;;7.44;67.66;97842.03;6127699;28;20235;-36
2023/03/21 05:41:20;;;;;;;2.87;2.53;;;;;;;7.45;67.46;97841.00;6130216;28;20325;-37
2023/03/21 05:44:22;;;;;;;3.03;2.73;;;;;;;7.46;67.65;97842.59;6131772;28;20323;-36
2023/03/21 05:47:25;;;;;;;2.47;2.27;;;;;;;7.33;67.91;97842.72;6127959;28;20726;-35
2023/03/21 05:50:30;;;;;;;4.50;2.40;;;;;;;7.34;68.24;97841.69;6131269;28;20584;-35
2023/03/21 05:53:45;;;;;;;2.50;2.30;;;;;;;7.28;68.21;97837.25;6129034;28;20607;-35
2023/03/21 05:56:48;;;;;;;2.77;2.57;;;;;;;7.29;68.48;97839.72;6146524;28;20241;-36
2023/03/21 06:00:01;;;;;;;2.43;2.23;;;;;;;7.24;68.32;97840.34;6126622;28;20236;-36
2023/03/21 06:03:04;;;;;;;2.47;2.17;;;;;;;7.24;68.49;97844.81;6131423;28;20233;-36
2023/03/21 06:06:29;;;;;;;2.90;2.70;;;;;;;7.26;68.72;97841.97;6130768;28;20633;-36
2023/03/21 06:09:33;;;;;;;17.67;3.03;;;;;;;7.41;68.53;97837.16;6131954;28;20246;-36
2023/03/21 06:12:37;;;;;;;3.17;2.13;;;;;;;7.64;68.34;97852.44;6127541;28;20241;-36
2023/03/21 06:15:49;;;;;;;2.40;2.20;;;;;;;7.90;68.11;97846.88;6144972;28;20709;-37
2023/03/21 06:18:55;;;;;;;3.90;2.30;;;;;;;8.15;67.71;97846.00;6130256;28;20357;-36
2023/03/21 06:22:36;;;;;;;3.67;2.30;;;;;;;8.38;66.97;97846.16;6123859;28;20269;-36
2023/03/21 06:25:39;;;;;;;3.87;2.33;;;;;;;8.65;66.54;97841.28;6139017;28;20234;-36
2023/03/21 06:28:42;;;;;;;2.47;2.27;;;;;;;8.83;66.04;97847.59;6129358;28;21022;-36
2023/03/21 06:31:44;;;;;;;2.40;2.20;;;;;;;8.78;65.61;97808.44;6129896;28;20232;-36
2023/03/21 06:34:46;;;;;;;2.27;1.80;;;;;;;9.36;64.94;97850.28;6137959;28;20380;-36
2023/03/21 06:37:49;;;;;;;2.80;2.23;;;;;;;9.53;64.37;97837.09;6138258;28;20262;-36
2023/03/21 06:40:53;;;;;;;2.00;1.90;;;;;;;9.54;64.33;97826.22;6114120;28;20289;-36
2023/03/21 06:43:57;;;;;;;2.23;2.03;;;;;;;9.61;64.09;97822.66;6139652;28;20234;-36
2023/03/21 06:47:00;;;;;;;4.10;3.70;;;;;;;9.72;63.33;97851.09;6145953;28;20234;-36
2023/03/21 06:50:02;;;;;;;4.03;3.50;;;;;;;9.68;62.53;97823.31;6133955;28;20242;-36
2023/03/21 06:53:12;;;;;;;4.50;3.60;;;;;;;9.98;61.71;97844.47;6138711;28;20247;-36
2023/03/21 06:56:34;;;;;;;2.90;2.60;;;;;;;10.05;61.38;97848.63;6138227;28;20235;-36
2023/03/21 06:59:37;;;;;;;2.80;2.50;;;;;;;9.88;61.76;97825.63;6134315;28;20619;-36
2023/03/21 07:02:47;;;;;;;3.03;2.83;;;;;;;10.04;61.04;97846.19;6138957;28;20243;-36
2023/03/21 07:05:54;;;;;;;2.90;2.70;;;;;;;10.10;61.03;97847.94;6134528;28;20317;-36
2023/03/21 07:08:57;;;;;;;3.03;2.43;;;;;;;10.18;61.05;97844.06;6136683;28;20236;-36
2023/03/21 07:12:00;;;;;;;2.70;2.50;;;;;;;10.04;60.86;97809.72;6153317;28;20330;-36
2023/03/21 07:15:13;;;;;;;3.90;3.60;;;;;;;9.79;60.49;97780.75;6135763;28;20745;-36
2023/03/21 07:18:17;;;;;;;4.70;4.03;;;;;;;10.40;59.53;97846.97;6154268;28;20688;-36
2023/03/21 07:21:19;;;;;;;5.73;5.07;;;;;;;10.49;58.96;97851.69;6137451;28;20392;-36
2023/03/21 07:24:21;;;;;;;4.27;3.87;;;;;;;10.66;58.55;97853.59;6135988;28;20243;-36
2023/03/21 07:27:23;;;;;;;4.97;4.20;;;;;;;10.82;57.95;97852.81;6137145;28;20607;-36
2023/03/21 07:30:26;;;;;;;5.33;4.30;;;;;;;10.93;57.18;97857.28;6137430;28;20547;-36
2023/03/21 07:33:27;;;;;;;5.07;4.40;;;;;;;11.01;57.20;97854.22;6137066;28;20237;-36
2023/03/21 07:36:32;;;;;;;5.67;4.50;;;;;;;11.27;56.13;97849.31;6121546;28;20315;-36
2023/03/21 07:39:35;;;;;;;6.70;4.47;;;;;;;11.44;54.95;97855.47;6138751;28;20243;-36
2023/03/21 07:42:39;;;;;;;4.50;4.10;;;;;;;11.63;54.70;97854.19;6136798;28;20225;-36
2023/03/21 07:45:43;;;;;;;4.53;4.13;;;;;;;11.77;53.12;97852.00;6137119;28;20229;-35
2023/03/21 07:48:45;;;;;;;4.77;3.57;;;;;;;12.33;52.33;97850.09;6139366;28;20310;-36
2023/03/21 07:51:47;;;;;;;6.20;4.60;;;;;;;12.91;50.18;97858.47;6137291;28;20713;-36
2023/03/21 07:54:49;;;;;;;9.60;4.07;;;;;;;12.53;50.23;97835.34;6138793;28;20708;-36
2023/03/21 07:57:52;;;;;;;5.37;4.23;;;;;;;12.52;51.56;97855.91;6136729;28;20241;-36
2023/03/21 08:00:57;;;;;;;4.43;3.60;;;;;;;15.74;44.63;97845.84;6136642;28;20631;-36
2023/03/21 08:03:59;;;;;;;3.97;3.57;;;;;;;16.10;43.29;97855.72;6132613;28;20234;-36
2023/03/21 08:07:01;;;;;;;5.73;3.50;;;;;;;18.85;37.85;97848.16;6135360;28;20238;-36
2023/03/21 08:10:04;;;;;;;3.80;3.33;;;;;;;21.17;31.79;97831.75;6133635;28;21044;-36
2023/03/21 08:13:06;;;;;;;4.10;2.77;;;;;;;22.43;30.65;97845.09;6135724;28;20234;-36
2023/03/21 08:16:08;;;;;;;3.30;3.00;;;;;;;21.46;31.29;97846.81;6134811;28;20245;-36
2023/03/21 08:19:10;;;;;;;3.10;2.80;;;;;;;23.53;28.71;97843.13;6135674;28;20242;-36
2023/03/21 08:22:12;;;;;;;3.77;3.47;;;;;;;22.59;29.10;97851.69;6139162;28;20238;-37
2023/03/21 08:25:16;;;;;;;3.63;3.33;;;;;;;20.54;31.34;97859.66;6137182;28;20781;-37
2023/03/21 08:28:19;;;;;;;4.07;3.67;;;;;;;18.45;35.76;97860.25;6141081;28;20249;-36
2023/03/21 08:31:22;;;;;;;3.07;2.77;;;;;;;20.97;32.32;97851.97;6131005;28;20234;-36
2023/03/21 08:34:25;;;;;;;3.27;2.97;;;;;;;20.51;32.07;97850.25;6134119;28;20265;-37
2023/03/21 08:37:27;;;;;;;3.43;3.00;;;;;;;19.17;34.83;97846.66;6133807;28;20234;-36
2023/03/21 08:40:29;;;;;;;4.03;2.57;;;;;;;18.22;36.63;97854.56;6133231;28;20241;-36
2023/03/21 08:43:32;;;;;;;3.70;3.37;;;;;;;16.93;38.75;97857.81;6133781;28;20513;-36
2023/03/21 08:46:34;;;;;;;4.73;4.00;;;;;;;15.09;43.11;97852.81;6134476;28;20373;-36
2023/03/21 08:49:36;;;;;;;4.20;3.60;;;;;;;14.16;45.37;97834.81;6133360;28;20230;-40
2023/03/21 08:52:38;;;;;;;4.23;3.83;;;;;;;14.02;45.84;97836.34;6130795;28;20242;-36
2023/03/21 08:55:40;;;;;;;4.03;3.73;;;;;;;14.12;46.11;97862.38;6133366;28;20325;-36
2023/03/21 08:58:43;;;;;;;4.13;3.73;;;;;;;13.75;46.84;97854.41;6131231;28;20256;-36
2023/03/21 09:01:45;;;;;;;4.40;4.00;;;;;;;13.91;46.95;97853.41;6133493;28;20240;-36
2023/03/21 09:04:48;;;;;;;4.30;3.93;;;;;;;13.78;46.88;97816.38;6134173;28;20245;-36
2023/03/21 09:07:51;;;;;;;4.60;4.20;;;;;;;14.23;46.25;97857.88;6133681;28;20257;-36
2023/03/21 09:10:55;;;;;;;7.60;3.50;;;;;;;15.01;44.89;97844.47;6129362;28;20283;-36
2023/03/21 09:13:57;;;;;;;3.97;3.50;;;;;;;15.19;44.49;97825.97;6133163;28;20621;-36
2023/03/21 09:16:59;;;;;;;4.20;3.60;;;;;;;15.33;43.51;97815.53;6132675;28;20332;-36
2023/03/21 09:20:09;;;;;;;5.13;4.57;;;;;;;15.51;43.45;97841.00;6132618;28;20233;-36
2023/03/21 09:23:13;;;;;;;4.50;3.90;;;;;;;15.55;43.16;97844.75;6142748;28;20744;-36
2023/03/21 09:26:16;;;;;;;3.90;3.60;;;;;;;15.60;42.99;97833.22;6133023;28;20373;-36
2023/03/21 09:29:20;;;;;;;3.83;3.23;;;;;;;15.71;42.74;97827.63;6131027;28;20270;-36
2023/03/21 09:32:22;;;;;;;3.43;2.97;;;;;;;15.67;42.89;97834.59;6133011;28;20289;-36
2023/03/21 09:35:25;;;;;;;4.53;4.13;;;;;;;15.26;43.74;97828.41;6132180;28;20266;-36
2023/03/21 09:38:29;;;;;;;4.57;4.17;;;;;;;14.79;43.08;97775.78;6132270;28;20351;-36
2023/03/21 09:41:44;;;;;;;4.80;4.00;;;;;;;15.20;43.44;97818.75;6132869;28;20730;-36
2023/03/21 09:44:57;;;;;;;4.20;3.57;;;;;;;15.55;42.18;97819.78;6130048;28;20733;-36
2023/03/21 09:48:01;;;;;;;3.60;3.03;;;;;;;15.92;40.85;97816.81;6132330;28;20703;-36
2023/03/21 09:51:07;;;;;;;3.53;3.23;;;;;;;16.05;39.97;97808.16;6132383;28;20765;-36
2023/03/21 09:54:23;;;;;;;3.30;2.73;;;;;;;16.30;38.79;97795.72;6131932;28;20250;-36
2023/03/21 09:57:31;;;;;;;3.00;2.70;;;;;;;16.25;38.35;97818.88;6144644;28;20769;-36
2023/03/21 10:00:42;;;;;;;3.30;2.73;;;;;;;15.69;38.67;97810.94;6132358;28;20234;-37
2023/03/21 10:03:46;;;;;;;2.70;2.50;;;;;;;15.81;38.91;97809.84;6129134;28;20241;-36
2023/03/21 10:06:58;;;;;;;2.80;2.13;;;;;;;16.09;39.00;97808.44;6132111;28;20246;-36
2023/03/21 10:10:03;;;;;;;3.07;2.57;;;;;;;16.67;37.74;97804.13;6128933;28;20239;-36
2023/03/21 10:13:14;;;;;;;2.70;2.50;;;;;;;16.88;36.96;97801.34;6130856;28;20238;-36
2023/03/21 10:16:31;;;;;;;5.53;2.40;;;;;;;16.38;37.96;97789.75;6145984;28;20602;-36
2023/03/21 10:19:34;;;;;;;3.23;2.80;;;;;;;16.35;38.27;97795.69;6132166;28;20239;-36
2023/03/21 10:22:37;;;;;;;3.30;2.93;;;;;;;15.90;38.88;97778.66;6130316;28;20595;-36
2023/03/21 10:25:43;;;;;;;2.00;1.87;;;;;;;15.45;39.52;97748.94;6130995;28;20283;-36
2023/03/21 10:28:47;;;;;;;2.63;2.20;;;;;;;16.68;37.80;97783.41;6131713;28;20569;-36
2023/03/21 10:31:54;;;;;;;3.23;2.57;;;;;;;16.91;36.48;97782.75;6130646;28;20231;-36
2023/03/21 10:34:57;;;;;;;3.53;2.30;;;;;;;17.16;36.57;97781.75;6113952;28;20629;-36
2023/03/21 10:38:00;;;;;;;3.40;2.40;;;;;;;16.75;36.13;97771.31;6130689;28;20238;-36
2023/03/21 10:41:02;;;;;;;3.17;2.07;;;;;;;17.56;35.71;97774.41;6131125;28;20226;-36
2023/03/21 10:44:17;;;;;;;2.50;2.30;;;;;;;18.07;34.98;97779.25;6130310;28;20308;-36
2023/03/21 10:47:27;;;;;;;2.30;2.10;;;;;;;17.76;35.64;97790.38;6130700;28;20875;-36
2023/03/21 10:50:30;;;;;;;3.00;2.70;;;;;;;17.01;35.81;97782.69;6128463;28;20280;-36
2023/03/21 10:53:37;;;;;;;2.63;2.10;;;;;;;16.91;36.40;97787.34;6130875;28;20226;-36
2023/03/21 10:56:49;;;;;;;4.17;2.63;;;;;;;17.19;35.80;97783.06;6132157;28;20623;-36
2023/03/21 10:59:53;;;;;;;2.60;2.40;;;;;;;17.87;35.26;97769.50;6128382;28;20325;-36
2023/03/21 11:02:56;;;;;;;2.47;2.13;;;;;;;17.94;34.55;97763.81;6131134;28;20321;-36
2023/03/21 11:06:05;;;;;;;2.83;2.20;;;;;;;18.33;33.92;97768.19;6130799;28;20654;-36
2023/03/21 11:09:19;;;;;;;2.33;2.13;;;;;;;17.94;35.05;97742.25;6127520;28;20214;-36
2023/03/21 11:12:39;;;;;;;2.30;2.10;;;;;;;17.67;34.43;97748.94;6131470;28;20239;-36
2023/03/21 11:15:57;;;;;;;3.50;1.80;;;;;;;17.19;35.19;97756.97;6143648;28;20589;-36
2023/03/21 11:19:02;;;;;;;2.47;2.10;;;;;;;16.43;36.27;97711.75;6129597;28;20289;-36
2023/03/21 11:22:06;;;;;;;4.27;2.27;;;;;;;16.88;35.89;97726.00;6129616;28;20241;-37
2023/03/21 11:25:35;;;;;;;2.63;2.07;;;;;;;17.26;35.60;97746.66;6125840;28;20625;-35
2023/03/21 11:28:40;;;;;;;2.20;1.70;;;;;;;17.34;35.04;97739.06;6129714;28;20273;-36
2023/03/21 11:31:43;;;;;;;2.17;1.90;;;;;;;17.92;34.70;97736.31;6128975;28;20254;-35
2023/03/21 11:34:49;;;;;;;2.40;1.73;;;;;;;18.18;34.07;97748.41;6131613;28;20239;-35
2023/03/21 11:37:53;;;;;;;3.53;2.10;;;;;;;17.42;34.49;97746.53;6130732;28;20717;-36
2023/03/21 11:40:58;;;;;;;2.83;2.50;;;;;;;17.21;35.10;97732.47;6135981;28;20405;-36
2023/03/21 11:44:02;;;;;;;2.87;2.43;;;;;;;17.47;35.32;97738.41;6135876;28;20700;-37
2023/03/21 11:47:04;;;;;;;3.00;2.50;;;;;;;17.32;35.17;97731.25;6135140;28;20721;-37
2023/03/21 11:50:34;;;;;;;2.67;2.13;;;;;;;17.30;35.98;97713.81;6135278;28;20318;-37
2023/03/21 11:53:41;;;;;;;2.53;2.10;;;;;;;17.03;35.99;97715.09;6130979;28;20278;-37
2023/03/21 11:56:48;;;;;;;2.23;2.10;;;;;;;16.92;36.58;97711.69;6135418;28;20249;-37
2023/03/21 12:00:16;;;;;;;2.53;2.33;;;;;;;17.03;37.52;97723.19;6131231;28;20231;-37
2023/03/21 12:03:27;;;;;;;2.40;2.20;;;;;;;17.21;36.38;97702.84;6131951;28;20587;-37
2023/03/21 12:07:14;;;;;;;2.63;2.43;;;;;;;17.85;35.26;97701.63;6131214;28;20722;-37
2023/03/21 12:10:28;;;;;;;2.20;2.00;;;;;;;17.71;35.52;97698.81;6132746;28;20602;-37
2023/03/21 12:13:33;;;;;;;2.70;2.40;;;;;;;16.97;35.96;97700.09;6131212;28;20741;-37
2023/03/21 12:17:05;;;;;;;3.20;2.90;;;;;;;16.20;37.56;97692.53;6133944;28;20814;-37
2023/03/21 12:20:15;;;;;;;2.10;2.00;;;;;;;16.61;37.67;97692.28;6142641;28;20602;-37
2023/03/21 12:23:20;;;;;;;2.83;2.30;;;;;;;17.28;36.47;97695.22;6128563;28;20321;-37
2023/03/21 12:26:29;;;;;;;2.50;2.30;;;;;;;17.55;36.19;97683.91;6134457;28;20251;-37
2023/03/21 12:29:48;;;;;;;2.80;2.50;;;;;;;17.51;35.82;97680.97;6136428;28;20230;-37
2023/03/21 12:33:21;;;;;;;2.77;2.50;;;;;;;17.54;35.50;97677.72;6134725;28;20239;-37
2023/03/21 12:36:54;;;;;;;2.00;1.80;;;;;;;17.88;34.80;97678.69;6132801;28;20234;-37
2023/03/21 12:40:09;;;;;;;3.77;1.90;;;;;;;17.57;35.12;97675.53;6131584;28;20265;-37
2023/03/21 12:43:17;;;;;;;2.47;2.00;;;;;;;17.02;35.42;97689.28;6148567;28;20688;-37
2023/03/21 12:46:28;;;;;;;2.90;2.70;;;;;;;16.38;37.04;97683.03;6133826;28;20249;-37
2023/03/21 12:49:42;;;;;;;2.43;2.23;;;;;;;16.16;38.15;97686.13;6133226;28;20246;-38
2023/03/21 12:52:49;;;;;;;3.80;2.47;;;;;;;15.91;38.53;97680.84;6132323;28;20270;-36
2023/03/21 12:55:55;;;;;;;2.10;2.00;;;;;;;14.93;39.07;97573.00;6132344;28;20713;-36
2023/03/21 12:59:22;;;;;;;1.70;1.60;;;;;;;15.64;38.60;97670.50;6131228;28;20839;-36
2023/03/21 13:02:44;;;;;;;2.33;2.13;;;;;;;15.51;38.80;97661.13;6130593;28;20266;-37
2023/03/21 13:05:51;;;;;;;2.33;2.13;;;;;;;15.61;39.15;97658.38;6130449;28;20715;-36
2023/03/21 13:09:04;;;;;;;2.10;1.90;;;;;;;15.49;38.88;97636.44;6134660;28;20373;-36
2023/03/21 13:12:23;;;;;;;2.17;1.70;;;;;;;15.80;38.22;97658.63;6125420;28;20717;-37
2023/03/21 13:15:37;;;;;;;1.40;1.30;;;;;;;15.88;38.68;97652.69;6133036;28;20231;-37
2023/03/21 13:18:53;;;;;;;2.00;1.90;;;;;;;15.38;39.61;97651.78;6133533;28;20725;-36
2023/03/21 13:22:10;;;;;;;2.30;2.10;;;;;;;15.20;40.41;97650.47;6134283;28;20329;-37
2023/03/21 13:25:19;;;;;;;2.40;1.93;;;;;;;15.25;40.16;97646.97;6130849;28;20238;-37
2023/03/21 13:28:27;;;;;;;3.10;2.00;;;;;;;15.31;39.98;97635.13;6133524;28;20238;-37
2023/03/21 13:31:34;;;;;;;1.97;1.80;;;;;;;15.43;40.13;97630.28;6129624;28;20306;-37
2023/03/21 13:34:58;;;;;;;2.17;2.00;;;;;;;15.69;39.57;97628.31;6131801;28;20235;-37
2023/03/21 13:38:20;;;;;;;3.20;2.90;;;;;;;15.70;39.26;97632.59;6129304;28;20429;-37
2023/03/21 13:41:35;;;;;;;2.70;2.23;;;;;;;15.72;39.77;97624.28;6129045;28;20650;-36
2023/03/21 13:44:47;;;;;;;3.47;1.70;;;;;;;15.82;39.91;97623.44;6131450;28;20298;-36
2023/03/21 13:47:58;;;;;;;1.70;1.60;;;;;;;16.09;39.45;97628.38;6142606;28;20579;-37
2023/03/21 13:51:03;;;;;;;3.03;2.23;;;;;;;15.87;39.12;97631.47;6132113;28;20361;-36
2023/03/21 13:54:14;;;;;;;2.00;1.80;;;;;;;15.81;39.32;97622.63;6129728;28;20851;-36
2023/03/21 13:57:37;;;;;;;2.27;1.97;;;;;;;15.82;39.34;97615.38;6132656;28;20775;-36
2023/03/21 14:00:39;;;;;;;3.30;2.13;;;;;;;15.74;39.42;97611.38;6131356;28;20591;-37
2023/03/21 14:03:44;;;;;;;2.57;2.37;;;;;;;15.65;40.43;97610.34;6132371;28;20722;-37
2023/03/21 14:06:57;;;;;;;2.33;2.13;;;;;;;15.66;40.37;97617.31;6132294;28;20771;-37
2023/03/21 14:10:19;;;;;;;2.53;2.10;;;;;;;15.64;40.47;97614.91;6132331;28;20235;-36
2023/03/21 14:13:24;;;;;;;2.00;1.70;;;;;;;15.58;40.04;97578.41;6134209;29;20329;-37
2023/03/21 14:16:27;;;;;;;2.50;2.30;;;;;;;15.83;39.46;97600.88;6132178;28;20834;-36
2023/03/21 14:19:31;;;;;;;2.40;1.93;;;;;;;15.88;39.84;97601.63;6132600;28;20250;-36
2023/03/21 14:22:33;;;;;;;2.50;2.23;;;;;;;15.72;39.87;97598.22;6130421;28;20590;-36
2023/03/21 14:25:37;;;;;;;2.50;2.30;;;;;;;15.49;40.40;97598.84;6132361;28;20238;-36
2023/03/21 14:28:50;;;;;;;3.20;2.40;;;;;;;15.36;40.76;97604.78;6129160;28;20242;-37
2023/03/21 14:31:55;;;;;;;2.87;2.30;;;;;;;15.34;41.13;97601.59;6131888;28;20786;-36
2023/03/21 14:35:00;;;;;;;2.20;2.00;;;;;;;15.45;40.79;97597.78;6131469;28;20237;-36
2023/03/21 14:38:08;;;;;;;2.30;2.10;;;;;;;15.36;40.78;97594.84;6126225;28;20227;-36
2023/03/21 14:41:27;;;;;;;2.37;2.10;;;;;;;15.38;41.10;97586.56;6122869;28;20332;-36
2023/03/21 14:44:46;;;;;;;2.17;1.97;;;;;;;15.20;41.19;97534.28;6130574;28;20231;-37
2023/03/21 14:48:03;;;;;;;2.37;2.10;;;;;;;15.28;41.49;97590.06;6129706;28;20737;-36
2023/03/21 14:51:09;;;;;;;3.80;2.57;;;;;;;15.29;41.20;97594.34;6131178;28;20597;-36
2023/03/21 14:54:16;;;;;;;2.00;1.73;;;;;;;15.35;41.71;97587.88;6131614;28;20245;-36